Norwegian Crown — C6II4 — position and weather

sailwx.info

Track history (hours):
 
Tides and Currents Weather Stations Pressure Air Temp Water Temp Dewpoint Dewpoint Depression Visibility Wind Speed Wind Dir Waves Ship Positions

Norwegian Crown

Operator: Norwegian Cruise Line

Last reported at 2014-Aug-30 03:15 UTC. Time now 2014-Aug-30 10:31 UTC.
Position N 57°45' E 009°44'.

Type: Passenger vessel. MMSI: 308785000.

Date/timePositionNaut miles runAvg speedWind from/ knotsBaromVisibWave heightAir tempDewpointWater temp
2014-Aug-30 03:15N 57°45' E 009°44'1115.8
2014-Aug-30 02:33N 57°48' E 010°04'1717.3
2014-Aug-30 01:33N 57°49' E 010°36'1616.4
2014-Aug-30 00:33N 57°41' E 011°02'1717.3
2014-Aug-29 23:33N 57°28' E 011°25'1717.4
2014-Aug-29 22:33N 57°12' E 011°36'1716.9
2014-Aug-29 21:33N 56°56' E 011°47'1716.6
2014-Aug-29 20:33N 56°40' E 011°56'1716.9
2014-Aug-29 19:33N 56°24' E 012°03'1615.6
2014-Aug-29 18:33N 56°12' E 012°21'1817.8
2014-Aug-29 17:33N 55°59' E 012°42'1514.6
2014-Aug-29 16:34N 55°44' E 012°40'3 3.0
2014-Aug-29 15:32N 55°42' E 012°36'0 0.0
2014-Aug-29 14:32N 55°42' E 012°36'0 0.0
2014-Aug-29 13:32N 55°42' E 012°36'0 0.0
2014-Aug-29 12:32N 55°42' E 012°36'0 0.0
2014-Aug-29 11:32N 55°42' E 012°36'0 0.0
2014-Aug-29 10:32N 55°42' E 012°36'0 0.0
2014-Aug-29 09:32N 55°42' E 012°36'0 0.0
2014-Aug-29 08:33N 55°42' E 012°36'0 0.0
2014-Aug-29 07:33N 55°42' E 012°36'0 0.0
2014-Aug-29 06:33N 55°42' E 012°36'0 0.0
2014-Aug-29 05:33N 55°42' E 012°36'0 0.0
2014-Aug-29 04:33N 55°42' E 012°36'0 0.0
2014-Aug-29 03:33N 55°42' E 012°36'0 0.0
2014-Aug-29 02:33N 55°42' E 012°36'0 0.0
2014-Aug-29 01:33N 55°42' E 012°36'0 0.0
2014-Aug-29 00:33N 55°42' E 012°36'0 0.0
2014-Aug-28 23:33N 55°42' E 012°36'0 0.0
2014-Aug-28 22:33N 55°42' E 012°36'0 0.0
2014-Aug-28 21:33N 55°42' E 012°36'0 0.0
2014-Aug-28 20:33N 55°42' E 012°36'0 0.0
2014-Aug-28 19:33N 55°42' E 012°36'0 0.0
2014-Aug-28 18:33N 55°42' E 012°36'0 0.0
2014-Aug-28 17:33N 55°42' E 012°36'0 0.0
2014-Aug-28 16:33N 55°42' E 012°36'0 0.0
2014-Aug-28 15:33N 55°42' E 012°36'0 0.0
2014-Aug-28 14:33N 55°42' E 012°36'0 0.0
2014-Aug-28 13:33N 55°42' E 012°36'0 0.0
2014-Aug-28 12:33N 55°42' E 012°36'0 0.0
2014-Aug-28 11:33N 55°42' E 012°36'0 0.0
2014-Aug-28 10:33N 55°42' E 012°36'0 0.0
2014-Aug-28 09:33N 55°42' E 012°36'0 0.0
2014-Aug-28 08:33N 55°42' E 012°36'0 0.0
2014-Aug-28 07:33N 55°42' E 012°36'0 0.0
2014-Aug-28 06:33N 55°42' E 012°36'1 0.7
2014-Aug-28 05:34N 55°43' E 012°37'6 6.4
2014-Aug-28 04:34N 55°37' E 012°42'1010.4
2014-Aug-28 03:33N 55°27' E 012°42'10 9.9
2014-Aug-28 02:34N 55°17' E 012°47'1111.4
2014-Aug-28 01:34N 55°16' E 013°07'1211.8
2014-Aug-28 00:34N 55°15' E 013°27'1111.5
2014-Aug-27 23:34N 55°14' E 013°47'1111.3
2014-Aug-27 22:34N 55°13' E 014°07'1010.5
2014-Aug-27 21:34N 55°19' E 014°23'1212.4
2014-Aug-27 20:33N 55°27' E 014°38'1211.9
2014-Aug-27 19:33N 55°34' E 014°56'1211.9
2014-Aug-27 18:34N 55°40' E 015°14'1512.2
2014-Aug-27 17:22N 55°47' E 015°37'1011.6
2014-Aug-27 16:31N 55°51' E 015°52'31514.2
2014-Aug-26 18:18N 59°34' E 022°48'1216.4
2014-Aug-26 17:33N 59°38' E 023°11'1716.6
2014-Aug-26 16:33N 59°43' E 023°42'1616.4
2014-Aug-26 15:34N 59°48' E 024°13'1716.5
2014-Aug-26 14:33N 59°55' E 024°43'1313.0
2014-Aug-26 13:33N 60°07' E 024°54'2 2.1
2014-Aug-26 12:31N 60°09' E 024°55'0 0.0
2014-Aug-26 11:31N 60°09' E 024°55'0 0.0
2014-Aug-26 10:31N 60°09' E 024°55'0 0.0
2014-Aug-26 09:31N 60°09' E 024°55'0 0.0
2014-Aug-26 08:31N 60°09' E 024°55'0 0.0
2014-Aug-26 07:31N 60°09' E 024°55'0 0.0
2014-Aug-26 06:31N 60°09' E 024°55'0 0.0
2014-Aug-26 05:31N 60°09' E 024°55'0 0.0
2014-Aug-26 04:31N 60°09' E 024°55'0 0.0
2014-Aug-26 03:31N 60°09' E 024°55'0 0.0
2014-Aug-26 02:07N 60°09' E 024°55'0 0.0
2014-Aug-26 01:31N 60°09' E 024°55'0 0.0
2014-Aug-26 00:31N 60°09' E 024°55'0 0.0
2014-Aug-25 22:25N 60°09' E 024°55'0 0.0
2014-Aug-25 20:31N 60°09' E 024°55'0 0.0
2014-Aug-25 19:13N 60°09' E 024°55'0 0.0
2014-Aug-25 18:25N 60°09' E 024°55'0 0.0
2014-Aug-25 17:28N 60°09' E 024°55'0 0.0
2014-Aug-25 16:31N 60°09' E 024°55'0 0.0
2014-Aug-25 15:31N 60°09' E 024°55'0 0.0
2014-Aug-25 14:31N 60°09' E 024°55'0 0.0
2014-Aug-25 13:31N 60°09' E 024°55'0 0.0
2014-Aug-25 12:31N 60°09' E 024°55'0 0.0
2014-Aug-25 11:28N 60°09' E 024°55'0 0.0
2014-Aug-25 10:31N 60°09' E 024°55'0 0.0
2014-Aug-25 09:31N 60°09' E 024°55'0 0.0
2014-Aug-25 08:31N 60°09' E 024°55'0 0.0
2014-Aug-25 07:31N 60°09' E 024°55'0 0.0
2014-Aug-25 06:31N 60°09' E 024°55'0 0.0
2014-Aug-25 05:31N 60°09' E 024°55'0 0.0
2014-Aug-25 04:33N 60°09' E 024°55'6 5.9
2014-Aug-25 03:33N 60°03' E 024°54'3210.1
2014-Aug-25 00:20N 59°57' E 025°57'912.1
2014-Aug-24 23:33N 59°59' E 026°15'1212.0
2014-Aug-24 22:33N 60°01' E 026°39'1211.9
2014-Aug-24 21:33N 59°60' E 027°03'1211.8
2014-Aug-24 20:33N 60°05' E 027°23'7714.5
2014-Aug-24 15:16N 59°56' E 029°56'7 9.6
2014-Aug-24 14:33N 59°57' E 030°10'1 0.9
2014-Aug-24 13:33N 59°57' E 030°12'0 0.0
2014-Aug-24 12:33N 59°57' E 030°12'0 0.0
2014-Aug-24 11:33N 59°57' E 030°12'0 0.0
2014-Aug-24 10:33N 59°57' E 030°12'0 0.0
2014-Aug-24 09:33N 59°57' E 030°12'0 0.0
2014-Aug-24 08:33N 59°57' E 030°12'0 0.0
2014-Aug-24 07:33N 59°57' E 030°12'0 0.0
2014-Aug-24 06:33N 59°57' E 030°12'0 0.0
2014-Aug-24 05:33N 59°57' E 030°12'0 0.0
2014-Aug-24 04:33N 59°57' E 030°12'0 0.0
2014-Aug-24 03:33N 59°57' E 030°12'0 0.0
2014-Aug-24 02:33N 59°57' E 030°12'0 0.0
2014-Aug-24 01:33N 59°57' E 030°12'0 0.0
2014-Aug-24 00:33N 59°57' E 030°12'0 0.0
2014-Aug-23 23:31N 59°57' E 030°12'0 0.0
2014-Aug-23 22:31N 59°57' E 030°12'0 0.0
2014-Aug-23 21:31N 59°57' E 030°12'0 0.0
2014-Aug-23 20:31N 59°57' E 030°12'0 0.0
2014-Aug-23 19:31N 59°57' E 030°12'0 0.0
2014-Aug-23 03:31N 59°57' E 030°12'1 0.9
2014-Aug-23 02:33N 59°57' E 030°10'7912.8
2014-Aug-22 20:25N 60°07' E 027°33'1816.4
2014-Aug-22 19:20N 59°58' E 027°03'1316.6
2014-Aug-22 18:32N 59°59' E 026°37'5216.9
2014-Aug-22 15:30N 59°44' E 024°59'1213.2
2014-Aug-22 14:33N 59°35' E 024°42'8 8.1
2014-Aug-22 13:33N 59°27' E 024°46'0 0.0
2014-Aug-22 12:27N 59°27' E 024°46'0 0.0
2014-Aug-22 11:30N 59°27' E 024°46'0 0.0
2014-Aug-22 10:30N 59°27' E 024°46'0 0.0
2014-Aug-22 09:21N 59°27' E 024°46'0 0.0
2014-Aug-22 08:33N 59°27' E 024°46'0 0.0
2014-Aug-22 07:33N 59°27' E 024°46'0 0.0
2014-Aug-22 06:33N 59°27' E 024°46'0 0.0
2014-Aug-22 05:33N 59°27' E 024°46'1 1.1
2014-Aug-22 04:33N 59°28' E 024°46'1311.5
2014-Aug-22 03:26N 59°30' E 024°21'1011.1
2014-Aug-22 02:33N 59°30' E 024°02'1211.3
2014-Aug-22 01:30N 59°30' E 023°38'30915.4
2014-Aug-21 05:25N 55°59' E 016°36'1416.8
2014-Aug-21 04:33N 55°52' E 016°13'1716.8
2014-Aug-21 03:33N 55°44' E 015°47'1916.6
2014-Aug-21 02:25N 55°36' E 015°16'1416.8
2014-Aug-21 01:34N 55°28' E 014°55'1616.3
2014-Aug-21 00:34N 55°19' E 014°32'1716.3
2014-Aug-20 23:33N 55°06' E 014°14'1616.3
2014-Aug-20 22:34N 54°58' E 013°49'1717.2
2014-Aug-20 21:34N 54°53' E 013°21'1717.0
2014-Aug-20 20:34N 54°47' E 012°53'1717.0
2014-Aug-20 19:33N 54°38' E 012°27'1717.2
2014-Aug-20 18:33N 54°25' E 012°09'8610.2
2014-Aug-20 10:10N 54°18' E 009°43'5 6.9
2014-Aug-20 09:27N 54°15' E 009°37'6 6.6
2014-Aug-20 08:34N 54°11' E 009°29'7 6.7
2014-Aug-20 07:33N 54°07' E 009°20'6 6.0
2014-Aug-20 06:33N 54°01' E 009°18'6 6.3
2014-Aug-20 05:33N 53°56' E 009°12'3 2.9
2014-Aug-20 04:34N 53°54' E 009°09'2 1.6
2014-Aug-20 03:34N 53°53' E 009°06'  
Track history (hours):
 
Tides and Currents Weather Stations Pressure Air Temp Water Temp Dewpoint Dewpoint Depression Visibility Wind Speed Wind Dir Waves Ship Positions

Norwegian Crown

Operator: Norwegian Cruise Line

Last reported at 2014-Aug-30 03:15 UTC. Time now 2014-Aug-30 10:31 UTC.
Position N 57°45' E 009°44'.

Type: Passenger vessel. MMSI: 308785000.

Date/timePositionNaut miles runAvg speedWind from/ knotsBaromVisibWave heightAir tempDewpointWater temp
2014-Aug-30 03:15N 57°45' E 009°44'1115.8
2014-Aug-30 02:33N 57°48' E 010°04'1717.3
2014-Aug-30 01:33N 57°49' E 010°36'1616.4
2014-Aug-30 00:33N 57°41' E 011°02'1717.3
2014-Aug-29 23:33N 57°28' E 011°25'1717.4
2014-Aug-29 22:33N 57°12' E 011°36'1716.9
2014-Aug-29 21:33N 56°56' E 011°47'1716.6
2014-Aug-29 20:33N 56°40' E 011°56'1716.9
2014-Aug-29 19:33N 56°24' E 012°03'1615.6
2014-Aug-29 18:33N 56°12' E 012°21'1817.8
2014-Aug-29 17:33N 55°59' E 012°42'1514.6
2014-Aug-29 16:34N 55°44' E 012°40'3 3.0
2014-Aug-29 15:32N 55°42' E 012°36'0 0.0
2014-Aug-29 14:32N 55°42' E 012°36'0 0.0
2014-Aug-29 13:32N 55°42' E 012°36'0 0.0
2014-Aug-29 12:32N 55°42' E 012°36'0 0.0
2014-Aug-29 11:32N 55°42' E 012°36'0 0.0
2014-Aug-29 10:32N 55°42' E 012°36'0 0.0
2014-Aug-29 09:32N 55°42' E 012°36'0 0.0
2014-Aug-29 08:33N 55°42' E 012°36'0 0.0
2014-Aug-29 07:33N 55°42' E 012°36'0 0.0
2014-Aug-29 06:33N 55°42' E 012°36'0 0.0
2014-Aug-29 05:33N 55°42' E 012°36'0 0.0
2014-Aug-29 04:33N 55°42' E 012°36'0 0.0
2014-Aug-29 03:33N 55°42' E 012°36'0 0.0
2014-Aug-29 02:33N 55°42' E 012°36'0 0.0
2014-Aug-29 01:33N 55°42' E 012°36'0 0.0
2014-Aug-29 00:33N 55°42' E 012°36'0 0.0
2014-Aug-28 23:33N 55°42' E 012°36'0 0.0
2014-Aug-28 22:33N 55°42' E 012°36'0 0.0
2014-Aug-28 21:33N 55°42' E 012°36'0 0.0
2014-Aug-28 20:33N 55°42' E 012°36'0 0.0
2014-Aug-28 19:33N 55°42' E 012°36'0 0.0
2014-Aug-28 18:33N 55°42' E 012°36'0 0.0
2014-Aug-28 17:33N 55°42' E 012°36'0 0.0
2014-Aug-28 16:33N 55°42' E 012°36'0 0.0
2014-Aug-28 15:33N 55°42' E 012°36'0 0.0
2014-Aug-28 14:33N 55°42' E 012°36'0 0.0
2014-Aug-28 13:33N 55°42' E 012°36'0 0.0
2014-Aug-28 12:33N 55°42' E 012°36'0 0.0
2014-Aug-28 11:33N 55°42' E 012°36'0 0.0
2014-Aug-28 10:33N 55°42' E 012°36'0 0.0
2014-Aug-28 09:33N 55°42' E 012°36'0 0.0
2014-Aug-28 08:33N 55°42' E 012°36'0 0.0
2014-Aug-28 07:33N 55°42' E 012°36'0 0.0
2014-Aug-28 06:33N 55°42' E 012°36'1 0.7
2014-Aug-28 05:34N 55°43' E 012°37'6 6.4
2014-Aug-28 04:34N 55°37' E 012°42'1010.4
2014-Aug-28 03:33N 55°27' E 012°42'10 9.9
2014-Aug-28 02:34N 55°17' E 012°47'1111.4
2014-Aug-28 01:34N 55°16' E 013°07'1211.8
2014-Aug-28 00:34N 55°15' E 013°27'1111.5
2014-Aug-27 23:34N 55°14' E 013°47'1111.3
2014-Aug-27 22:34N 55°13' E 014°07'1010.5
2014-Aug-27 21:34N 55°19' E 014°23'1212.4
2014-Aug-27 20:33N 55°27' E 014°38'1211.9
2014-Aug-27 19:33N 55°34' E 014°56'1211.9
2014-Aug-27 18:34N 55°40' E 015°14'1512.2
2014-Aug-27 17:22N 55°47' E 015°37'1011.6
2014-Aug-27 16:31N 55°51' E 015°52'31514.2
2014-Aug-26 18:18N 59°34' E 022°48'1216.4
2014-Aug-26 17:33N 59°38' E 023°11'1716.6
2014-Aug-26 16:33N 59°43' E 023°42'1616.4
2014-Aug-26 15:34N 59°48' E 024°13'1716.5
2014-Aug-26 14:33N 59°55' E 024°43'1313.0
2014-Aug-26 13:33N 60°07' E 024°54'2 2.1
2014-Aug-26 12:31N 60°09' E 024°55'0 0.0
2014-Aug-26 11:31N 60°09' E 024°55'0 0.0
2014-Aug-26 10:31N 60°09' E 024°55'0 0.0
2014-Aug-26 09:31N 60°09' E 024°55'0 0.0
2014-Aug-26 08:31N 60°09' E 024°55'0 0.0
2014-Aug-26 07:31N 60°09' E 024°55'0 0.0
2014-Aug-26 06:31N 60°09' E 024°55'0 0.0
2014-Aug-26 05:31N 60°09' E 024°55'0 0.0
2014-Aug-26 04:31N 60°09' E 024°55'0 0.0
2014-Aug-26 03:31N 60°09' E 024°55'0 0.0
2014-Aug-26 02:07N 60°09' E 024°55'0 0.0
2014-Aug-26 01:31N 60°09' E 024°55'0 0.0
2014-Aug-26 00:31N 60°09' E 024°55'0 0.0
2014-Aug-25 22:25N 60°09' E 024°55'0 0.0
2014-Aug-25 20:31N 60°09' E 024°55'0 0.0
2014-Aug-25 19:13N 60°09' E 024°55'0 0.0
2014-Aug-25 18:25N 60°09' E 024°55'0 0.0
2014-Aug-25 17:28N 60°09' E 024°55'0 0.0
2014-Aug-25 16:31N 60°09' E 024°55'0 0.0
2014-Aug-25 15:31N 60°09' E 024°55'0 0.0
2014-Aug-25 14:31N 60°09' E 024°55'0 0.0
2014-Aug-25 13:31N 60°09' E 024°55'0 0.0
2014-Aug-25 12:31N 60°09' E 024°55'0 0.0
2014-Aug-25 11:28N 60°09' E 024°55'0 0.0
2014-Aug-25 10:31N 60°09' E 024°55'0 0.0
2014-Aug-25 09:31N 60°09' E 024°55'0 0.0
2014-Aug-25 08:31N 60°09' E 024°55'0 0.0
2014-Aug-25 07:31N 60°09' E 024°55'0 0.0
2014-Aug-25 06:31N 60°09' E 024°55'0 0.0
2014-Aug-25 05:31N 60°09' E 024°55'0 0.0
2014-Aug-25 04:33N 60°09' E 024°55'6 5.9
2014-Aug-25 03:33N 60°03' E 024°54'3210.1
2014-Aug-25 00:20N 59°57' E 025°57'912.1
2014-Aug-24 23:33N 59°59' E 026°15'1212.0
2014-Aug-24 22:33N 60°01' E 026°39'1211.9
2014-Aug-24 21:33N 59°60' E 027°03'1211.8
2014-Aug-24 20:33N 60°05' E 027°23'7714.5
2014-Aug-24 15:16N 59°56' E 029°56'7 9.6
2014-Aug-24 14:33N 59°57' E 030°10'1 0.9
2014-Aug-24 13:33N 59°57' E 030°12'0 0.0
2014-Aug-24 12:33N 59°57' E 030°12'0 0.0
2014-Aug-24 11:33N 59°57' E 030°12'0 0.0
2014-Aug-24 10:33N 59°57' E 030°12'0 0.0
2014-Aug-24 09:33N 59°57' E 030°12'0 0.0
2014-Aug-24 08:33N 59°57' E 030°12'0 0.0
2014-Aug-24 07:33N 59°57' E 030°12'0 0.0
2014-Aug-24 06:33N 59°57' E 030°12'0 0.0
2014-Aug-24 05:33N 59°57' E 030°12'0 0.0
2014-Aug-24 04:33N 59°57' E 030°12'0 0.0
2014-Aug-24 03:33N 59°57' E 030°12'0 0.0
2014-Aug-24 02:33N 59°57' E 030°12'0 0.0
2014-Aug-24 01:33N 59°57' E 030°12'0 0.0
2014-Aug-24 00:33N 59°57' E 030°12'0 0.0
2014-Aug-23 23:31N 59°57' E 030°12'0 0.0
2014-Aug-23 22:31N 59°57' E 030°12'0 0.0
2014-Aug-23 21:31N 59°57' E 030°12'0 0.0
2014-Aug-23 20:31N 59°57' E 030°12'0 0.0
2014-Aug-23 19:31N 59°57' E 030°12'0 0.0
2014-Aug-23 03:31N 59°57' E 030°12'1 0.9
2014-Aug-23 02:33N 59°57' E 030°10'7912.8
2014-Aug-22 20:25N 60°07' E 027°33'1816.4
2014-Aug-22 19:20N 59°58' E 027°03'1316.6
2014-Aug-22 18:32N 59°59' E 026°37'5216.9
2014-Aug-22 15:30N 59°44' E 024°59'1213.2
2014-Aug-22 14:33N 59°35' E 024°42'8 8.1
2014-Aug-22 13:33N 59°27' E 024°46'0 0.0
2014-Aug-22 12:27N 59°27' E 024°46'0 0.0
2014-Aug-22 11:30N 59°27' E 024°46'0 0.0
2014-Aug-22 10:30N 59°27' E 024°46'0 0.0
2014-Aug-22 09:21N 59°27' E 024°46'0 0.0
2014-Aug-22 08:33N 59°27' E 024°46'0 0.0
2014-Aug-22 07:33N 59°27' E 024°46'0 0.0
2014-Aug-22 06:33N 59°27' E 024°46'0 0.0
2014-Aug-22 05:33N 59°27' E 024°46'1 1.1
2014-Aug-22 04:33N 59°28' E 024°46'1311.5
2014-Aug-22 03:26N 59°30' E 024°21'1011.1
2014-Aug-22 02:33N 59°30' E 024°02'1211.3
2014-Aug-22 01:30N 59°30' E 023°38'30915.4
2014-Aug-21 05:25N 55°59' E 016°36'1416.8
2014-Aug-21 04:33N 55°52' E 016°13'1716.8
2014-Aug-21 03:33N 55°44' E 015°47'1916.6
2014-Aug-21 02:25N 55°36' E 015°16'1416.8
2014-Aug-21 01:34N 55°28' E 014°55'1616.3
2014-Aug-21 00:34N 55°19' E 014°32'1716.3
2014-Aug-20 23:33N 55°06' E 014°14'1616.3
2014-Aug-20 22:34N 54°58' E 013°49'1717.2
2014-Aug-20 21:34N 54°53' E 013°21'1717.0
2014-Aug-20 20:34N 54°47' E 012°53'1717.0
2014-Aug-20 19:33N 54°38' E 012°27'1717.2
2014-Aug-20 18:33N 54°25' E 012°09'8610.2
2014-Aug-20 10:10N 54°18' E 009°43'5 6.9
2014-Aug-20 09:27N 54°15' E 009°37'6 6.6
2014-Aug-20 08:34N 54°11' E 009°29'7 6.7
2014-Aug-20 07:33N 54°07' E 009°20'6 6.0
2014-Aug-20 06:33N 54°01' E 009°18'6 6.3
2014-Aug-20 05:33N 53°56' E 009°12'3 2.9
2014-Aug-20 04:34N 53°54' E 009°09'2 1.6
2014-Aug-20 03:34N 53°53' E 009°06'  

Dump ship's entire track history